| time (UTC) | temp C | wind direction | speed KPH | gust KPH | rain 1hr cm | rain 24hr cm | rain mn cm | humidity % | barometer mb |
| 20260906183036 | 15 | 260 | 0.0 | 1.6 | 0.00 | 0.03 | 0.03 | 80 | 1022.1 |
| 20260906182536 | 15 | 260 | 0.0 | 1.6 | 0.00 | 0.03 | 0.03 | 80 | 1022.1 |
| 20260906182032 | 15 | 260 | 0.0 | 0.0 | 0.00 | 0.03 | 0.03 | 80 | 1022.2 |
| 20260906181552 | 15 | 260 | 0.0 | 0.0 | 0.00 | 0.03 | 0.03 | 80 | 1022.1 |
| 20260906181032 | 15 | 260 | 0.0 | 0.0 | 0.00 | 0.03 | 0.03 | 79 | 1022.1 |
| 20260906180531 | 16 | 260 | 0.0 | 0.0 | 0.00 | 0.03 | 0.03 | 78 | 1022.1 |
| 20260906180032 | 16 | 260 | 0.0 | 0.0 | 0.00 | 0.03 | 0.03 | 78 | 1022.0 |
| 20260906175532 | 16 | 260 | 0.0 | 0.0 | 0.00 | 0.03 | 0.03 | 78 | 1022.0 |
| 20260906175034 | 16 | 260 | 0.0 | 0.0 | 0.00 | 0.03 | 0.03 | 77 | 1022.0 |
| 20260906174531 | 16 | 260 | 0.0 | 0.0 | 0.00 | 0.03 | 0.03 | 77 | 1021.9 |
| 20260906174031 | 16 | 260 | 0.0 | 0.0 | 0.00 | 0.03 | 0.03 | 76 | 1021.9 |
| 20260906173530 | 16 | 260 | 0.0 | 0.0 | 0.00 | 0.03 | 0.03 | 75 | 1021.9 |
| 20260906173031 | 16 | 260 | 0.0 | 0.0 | 0.00 | 0.03 | 0.03 | 74 | 1021.9 |
| 20260906172531 | 17 | 260 | 0.0 | 1.6 | 0.00 | 0.03 | 0.03 | 73 | 1022.0 |
| 20260906172030 | 17 | 260 | 0.0 | 3.2 | 0.00 | 0.03 | 0.03 | 73 | 1022.0 |
| 20260906171535 | 17 | 260 | 0.0 | 3.2 | 0.00 | 0.03 | 0.03 | 73 | 1022.0 |
| 20260906171029 | 17 | 304 | 0.0 | 4.8 | 0.00 | 0.03 | 0.03 | 72 | 1022.1 |
| 20260906170530 | 17 | 313 | 0.0 | 3.2 | 0.00 | 0.03 | 0.03 | 71 | 1022.1 |
| 20260906170030 | 17 | 313 | 0.0 | 3.2 | 0.00 | 0.03 | 0.03 | 71 | 1022.1 |
| 20260906165530 | 17 | 211 | 0.0 | 4.8 | 0.00 | 0.03 | 0.03 | 70 | 1022.1 |
| 20260906165029 | 17 | 177 | 1.6 | 4.8 | 0.00 | 0.03 | 0.03 | 69 | 1022.1 |
| 20260906164529 | 17 | 276 | 1.6 | 6.4 | 0.00 | 0.03 | 0.03 | 69 | 1022.2 |
| 20260906164029 | 17 | 194 | 0.0 | 8.0 | 0.00 | 0.03 | 0.03 | 68 | 1022.2 |
| 20260906163528 | 17 | 266 | 3.2 | 11.3 | 0.00 | 0.03 | 0.03 | 67 | 1022.2 |
| 20260906163028 | 17 | 294 | 1.6 | 12.9 | 0.00 | 0.03 | 0.03 | 66 | 1022.2 |
| 20260906162529 | 18 | 314 | 1.6 | 9.7 | 0.00 | 0.03 | 0.03 | 67 | 1022.2 |
| 20260906162027 | 18 | 148 | 1.6 | 8.0 | 0.00 | 0.03 | 0.03 | 67 | 1022.2 |
| 20260906161530 | 18 | 274 | 0.0 | 8.0 | 0.00 | 0.03 | 0.03 | 67 | 1022.2 |
| 20260906161031 | 18 | 305 | 0.0 | 11.3 | 0.00 | 0.03 | 0.03 | 67 | 1022.2 |
| 20260906160527 | 18 | 289 | 3.2 | 11.3 | 0.00 | 0.03 | 0.03 | 66 | 1022.2 |
| 20260906160028 | 18 | 250 | 4.8 | 11.3 | 0.00 | 0.03 | 0.03 | 64 | 1022.3 |
| 20260906155527 | 17 | 253 | 3.2 | 9.7 | 0.00 | 0.03 | 0.03 | 67 | 1022.3 |
| 20260906155028 | 17 | 137 | 4.8 | 11.3 | 0.00 | 0.03 | 0.03 | 65 | 1022.2 |
| 20260906154527 | 17 | 58 | 1.6 | 9.7 | 0.00 | 0.03 | 0.03 | 65 | 1022.3 |
| 20260906154027 | 18 | 286 | 1.6 | 8.0 | 0.00 | 0.03 | 0.03 | 66 | 1022.3 |
| 20260906153530 | 18 | 287 | 1.6 | 14.5 | 0.00 | 0.03 | 0.03 | 66 | 1022.2 |
| 20260906153028 | 18 | 260 | 1.6 | 11.3 | 0.00 | 0.03 | 0.03 | 66 | 1022.2 |
| 20260906152528 | 18 | 331 | 3.2 | 11.3 | 0.00 | 0.03 | 0.03 | 65 | 1022.0 |
| 20260906152029 | 18 | 217 | 1.6 | 12.9 | 0.00 | 0.03 | 0.03 | 66 | 1022.1 |
| 20260906151526 | 18 | 224 | 3.2 | 12.9 | 0.00 | 0.03 | 0.03 | 66 | 1022.1 |
| 20260906151025 | 18 | 301 | 1.6 | 9.7 | 0.00 | 0.03 | 0.03 | 66 | 1022.1 |
| 20260906150528 | 18 | 179 | 1.6 | 14.5 | 0.00 | 0.03 | 0.03 | 66 | 1022.1 |
| 20260906150031 | 18 | 294 | 4.8 | 14.5 | 0.00 | 0.03 | 0.03 | 66 | 1022.1 |
| 20260906145524 | 18 | 305 | 1.6 | 14.5 | 0.00 | 0.03 | 0.03 | 66 | 1022.2 |
| 20260906145025 | 18 | 271 | 4.8 | 12.9 | 0.00 | 0.03 | 0.03 | 65 | 1022.3 |
| 20260906144524 | 18 | 169 | 1.6 | 9.7 | 0.00 | 0.03 | 0.03 | 65 | 1022.1 |
| 20260906144026 | 18 | 293 | 3.2 | 9.7 | 0.00 | 0.03 | 0.03 | 65 | 1022.1 |
| 20260906143523 | 18 | 315 | 1.6 | 8.0 | 0.00 | 0.03 | 0.03 | 67 | 1022.1 |
| 20260906143022 | 18 | 252 | 1.6 | 8.0 | 0.00 | 0.03 | 0.03 | 68 | 1022.2 |
| 20260906142523 | 18 | 259 | 1.6 | 9.7 | 0.00 | 0.03 | 0.03 | 68 | 1022.2 |
| 20260906142021 | 17 | 274 | 1.6 | 14.5 | 0.00 | 0.03 | 0.03 | 67 | 1022.2 |
| 20260906141522 | 17 | 211 | 3.2 | 14.5 | 0.00 | 0.03 | 0.03 | 66 | 1022.3 |
| 20260906141027 | 18 | 269 | 1.6 | 11.3 | 0.00 | 0.03 | 0.03 | 66 | 1022.2 |
| 20260906140622 | 18 | 217 | 3.2 | 12.9 | 0.00 | 0.03 | 0.03 | 65 | 1022.3 |
| 20260906140023 | 18 | 271 | 4.8 | 14.5 | 0.00 | 0.03 | 0.03 | 65 | 1022.2 |
| 20260906135523 | 18 | 246 | 1.6 | 9.7 | 0.00 | 0.03 | 0.03 | 66 | 1022.3 |
| 20260906135021 | 18 | 140 | 3.2 | 9.7 | 0.00 | 0.03 | 0.03 | 66 | 1022.2 |
| 20260906134521 | 17 | 250 | 3.2 | 19.3 | 0.00 | 0.03 | 0.03 | 65 | 1022.2 |
| 20260906134022 | 17 | 70 | 4.8 | 19.3 | 0.00 | 0.03 | 0.03 | 64 | 1022.2 |
| 20260906133523 | 18 | 239 | 4.8 | 14.5 | 0.00 | 0.03 | 0.03 | 63 | 1022.2 |
| 20260906133019 | 18 | 314 | 4.8 | 14.5 | 0.00 | 0.03 | 0.03 | 64 | 1022.1 |
| 20260906132520 | 18 | 303 | 4.8 | 19.3 | 0.00 | 0.03 | 0.03 | 64 | 1022.2 |
| 20260906132019 | 18 | 288 | 3.2 | 19.3 | 0.00 | 0.03 | 0.03 | 63 | 1022.2 |
| 20260906131519 | 18 | 205 | 3.2 | 20.9 | 0.00 | 0.03 | 0.03 | 62 | 1022.2 |
| 20260906131019 | 18 | 185 | 6.4 | 20.9 | 0.00 | 0.03 | 0.03 | 61 | 1022.2 |
| 20260906130519 | 18 | 207 | 4.8 | 16.1 | 0.00 | 0.03 | 0.03 | 62 | 1022.2 |
| 20260906130020 | 18 | 355 | 9.7 | 16.1 | 0.00 | 0.03 | 0.03 | 59 | 1022.3 |
| 20260906125517 | 18 | 309 | 4.8 | 16.1 | 0.00 | 0.05 | 0.03 | 63 | 1022.1 |
| 20260906125017 | 18 | 167 | 3.2 | 16.1 | 0.00 | 0.05 | 0.03 | 63 | 1022.1 |
| 20260906124517 | 18 | 206 | 4.8 | 16.1 | 0.00 | 0.05 | 0.03 | 62 | 1022.2 |
| 20260906124017 | 18 | 277 | 6.4 | 19.3 | 0.00 | 0.05 | 0.03 | 62 | 1022.1 |
| 20260906123516 | 18 | 342 | 4.8 | 19.3 | 0.00 | 0.05 | 0.03 | 62 | 1022.1 |
| 20260906123023 | 18 | 215 | 3.2 | 11.3 | 0.00 | 0.05 | 0.03 | 63 | 1022.1 |
| 20260906122515 | 18 | 224 | 4.8 | 12.9 | 0.00 | 0.05 | 0.03 | 61 | 1022.0 |
| 20260906122015 | 18 | 199 | 3.2 | 14.5 | 0.00 | 0.05 | 0.03 | 61 | 1022.0 |
| 20260906121516 | 18 | 84 | 1.6 | 17.7 | 0.00 | 0.05 | 0.03 | 62 | 1022.1 |
| 20260906121015 | 18 | 291 | 4.8 | 19.3 | 0.00 | 0.05 | 0.03 | 60 | 1022.1 |
| 20260906120514 | 18 | 294 | 8.0 | 19.3 | 0.00 | 0.05 | 0.03 | 58 | 1022.1 |
| 20260906120013 | 18 | 271 | 8.0 | 19.3 | 0.00 | 0.05 | 0.03 | 57 | 1022.0 |
| 20260906115513 | 18 | 245 | 6.4 | 24.1 | 0.00 | 0.05 | 0.03 | 60 | 1021.9 |
| 20260906115012 | 18 | 218 | 6.4 | 24.1 | 0.00 | 0.05 | 0.03 | 62 | 1021.9 |
| 20260906114532 | 18 | 295 | 4.8 | 17.7 | 0.00 | 0.05 | 0.03 | 61 | 1021.9 |
| 20260906114011 | 18 | 188 | 3.2 | 14.5 | 0.00 | 0.05 | 0.03 | 63 | 1021.8 |
| 20260906113510 | 17 | 295 | 4.8 | 14.5 | 0.00 | 0.05 | 0.03 | 62 | 1021.9 |
| 20260906113009 | 17 | 286 | 6.4 | 14.5 | 0.00 | 0.05 | 0.03 | 62 | 1021.9 |
| 20260906112510 | 17 | 181 | 3.2 | 14.5 | 0.00 | 0.05 | 0.03 | 64 | 1021.8 |
| 20260906112008 | 17 | 243 | 6.4 | 14.5 | 0.00 | 0.05 | 0.03 | 62 | 1021.9 |
| 20260906111518 | 17 | 331 | 3.2 | 14.5 | 0.00 | 0.05 | 0.03 | 64 | 1021.8 |
| 20260906111007 | 17 | 69 | 3.2 | 8.0 | 0.00 | 0.05 | 0.03 | 66 | 1021.8 |
| 20260906110510 | 17 | 177 | 1.6 | 12.9 | 0.00 | 0.05 | 0.03 | 66 | 1021.8 |
| 20260906110008 | 17 | 128 | 3.2 | 12.9 | 0.00 | 0.05 | 0.03 | 67 | 1021.8 |
| 20260906105509 | 17 | 299 | 1.6 | 14.5 | 0.00 | 0.05 | 0.03 | 68 | 1021.8 |
| 20260906105006 | 17 | 279 | 4.8 | 14.5 | 0.00 | 0.05 | 0.03 | 68 | 1021.9 |
| 20260906104509 | 17 | 40 | 3.2 | 16.1 | 0.00 | 0.05 | 0.03 | 68 | 1021.9 |
| 20260906104005 | 17 | 24 | 4.8 | 16.1 | 0.00 | 0.05 | 0.03 | 67 | 1021.8 |
| 20260906103503 | 17 | 303 | 4.8 | 16.1 | 0.00 | 0.05 | 0.03 | 68 | 1021.8 |
| 20260906103003 | 17 | 149 | 1.6 | 17.7 | 0.00 | 0.05 | 0.03 | 68 | 1021.7 |
| 20260906102502 | 17 | 198 | 3.2 | 17.7 | 0.00 | 0.05 | 0.03 | 67 | 1021.7 |
| 20260906102002 | 17 | 183 | 4.8 | 17.7 | 0.00 | 0.05 | 0.03 | 70 | 1021.6 |
| 20260906101501 | 17 | 221 | 4.8 | 17.7 | 0.00 | 0.05 | 0.03 | 69 | 1021.5 |
| 20260906101001 | 17 | 223 | 4.8 | 22.5 | 0.00 | 0.05 | 0.03 | 68 | 1021.5 |
| 20260906100602 | 17 | 300 | 4.8 | 27.4 | 0.00 | 0.05 | 0.03 | 67 | 1021.3 |
| 20260906100100 | 17 | 239 | 6.4 | 27.4 | 0.00 | 0.05 | 0.03 | 68 | 1021.3 |
| 20260906095559 | 17 | 288 | 8.0 | 17.7 | 0.00 | 0.05 | 0.03 | 68 | 1021.2 |
| 20260906095058 | 17 | 214 | 4.8 | 16.1 | 0.00 | 0.05 | 0.03 | 68 | 1021.0 |
| 20260906094557 | 17 | 341 | 6.4 | 14.5 | 0.00 | 0.05 | 0.03 | 69 | 1021.0 |
| 20260906094055 | 17 | 296 | 6.4 | 14.5 | 0.00 | 0.05 | 0.03 | 69 | 1020.9 |
| 20260906093555 | 17 | 170 | 6.4 | 17.7 | 0.00 | 0.05 | 0.03 | 70 | 1020.9 |
| 20260906093053 | 17 | 209 | 6.4 | 17.7 | 0.00 | 0.05 | 0.03 | 70 | 1021.0 |
| 20260906092552 | 17 | 289 | 3.2 | 17.7 | 0.00 | 0.05 | 0.03 | 70 | 1020.8 |
| 20260906092052 | 17 | 30 | 6.4 | 20.9 | 0.00 | 0.05 | 0.03 | 69 | 1020.7 |
| 20260906091551 | 17 | 68 | 6.4 | 22.5 | 0.00 | 0.05 | 0.03 | 70 | 1020.9 |
| 20260906091050 | 17 | 289 | 4.8 | 22.5 | 0.00 | 0.05 | 0.03 | 71 | 1020.8 |
| 20260906090548 | 17 | 159 | 6.4 | 17.7 | 0.00 | 0.05 | 0.03 | 73 | 1020.6 |
| 20260906090048 | 16 | 283 | 8.0 | 16.1 | 0.00 | 0.05 | 0.03 | 72 | 1020.6 |
| 20260906085551 | 16 | 271 | 4.8 | 16.1 | 0.00 | 0.05 | 0.03 | 73 | 1020.6 |
| 20260906085047 | 16 | 272 | 6.4 | 19.3 | 0.00 | 0.05 | 0.03 | 73 | 1020.5 |
| 20260906084546 | 16 | 290 | 3.2 | 22.5 | 0.00 | 0.05 | 0.03 | 74 | 1020.5 |
| 20260906084045 | 16 | 123 | 6.4 | 22.5 | 0.00 | 0.05 | 0.03 | 75 | 1020.5 |
| 20260906083543 | 16 | 268 | 4.8 | 22.5 | 0.00 | 0.05 | 0.03 | 76 | 1020.4 |
| 20260906083042 | 16 | 263 | 6.4 | 22.5 | 0.00 | 0.05 | 0.03 | 76 | 1020.4 |
| 20260906082541 | 16 | 266 | 4.8 | 22.5 | 0.00 | 0.05 | 0.03 | 77 | 1020.2 |
| 20260906082040 | 16 | 289 | 3.2 | 17.7 | 0.00 | 0.05 | 0.03 | 77 | 1020.1 |
| 20260906081542 | 16 | 298 | 4.8 | 17.7 | 0.00 | 0.05 | 0.03 | 77 | 1020.1 |
| 20260906081040 | 16 | 184 | 4.8 | 22.5 | 0.00 | 0.05 | 0.03 | 78 | 1020.1 |
| 20260906080538 | 16 | 161 | 4.8 | 22.5 | 0.00 | 0.05 | 0.03 | 78 | 1020.1 |
| 20260906080037 | 16 | 277 | 6.4 | 22.5 | 0.00 | 0.05 | 0.03 | 78 | 1019.9 |
| 20260906075535 | 15 | 179 | 4.8 | 16.1 | 0.00 | 0.05 | 0.03 | 79 | 1020.0 |
| 20260906075036 | 15 | 15 | 4.8 | 16.1 | 0.00 | 0.05 | 0.03 | 79 | 1020.0 |
| 20260906074534 | 15 | 275 | 3.2 | 17.7 | 0.00 | 0.05 | 0.03 | 80 | 1020.0 |
| 20260906074032 | 15 | 179 | 3.2 | 16.1 | 0.00 | 0.05 | 0.03 | 81 | 1019.9 |
| 20260906073536 | 15 | 153 | 1.6 | 29.0 | 0.00 | 0.05 | 0.03 | 81 | 1019.9 |
| 20260906073030 | 15 | 273 | 8.0 | 29.0 | 0.00 | 0.05 | 0.03 | 81 | 1019.8 |
| 20260906072529 | 15 | 318 | 1.6 | 16.1 | 0.00 | 0.05 | 0.03 | 82 | 1019.7 |
| 20260906072029 | 15 | 26 | 4.8 | 20.9 | 0.00 | 0.05 | 0.03 | 81 | 1019.7 |
| 20260906071531 | 15 | 60 | 4.8 | 20.9 | 0.00 | 0.05 | 0.03 | 82 | 1019.5 |
| 20260906071025 | 14 | 253 | 6.4 | 19.3 | 0.00 | 0.05 | 0.03 | 83 | 1019.5 |
| 20260906070527 | 14 | 288 | 9.7 | 24.1 | 0.00 | 0.05 | 0.03 | 83 | 1019.4 |
| 20260906070023 | 14 | 262 | 6.4 | 24.1 | 0.00 | 0.05 | 0.03 | 84 | 1019.4 |
| 20260906065522 | 14 | 246 | 3.2 | 17.7 | 0.00 | 0.05 | 0.03 | 84 | 1019.4 |
| 20260906065021 | 14 | 160 | 4.8 | 20.9 | 0.00 | 0.05 | 0.03 | 85 | 1019.3 |
| 20260906064526 | 13 | 277 | 3.2 | 20.9 | 0.00 | 0.05 | 0.03 | 86 | 1019.3 |
| 20260906064019 | 13 | 262 | 4.8 | 22.5 | 0.00 | 0.05 | 0.03 | 86 | 1019.3 |
| 20260906063517 | 13 | 252 | 4.8 | 22.5 | 0.00 | 0.05 | 0.03 | 87 | 1019.2 |
| 20260906063016 | 13 | 198 | 4.8 | 19.3 | 0.00 | 0.05 | 0.03 | 87 | 1019.2 |
| 20260906062515 | 13 | 163 | 3.2 | 11.3 | 0.00 | 0.05 | 0.03 | 88 | 1019.1 |
| 20260906062014 | 13 | 190 | 3.2 | 11.3 | 0.00 | 0.05 | 0.03 | 88 | 1019.1 |
| 20260906061514 | 13 | 310 | 3.2 | 12.9 | 0.00 | 0.05 | 0.03 | 88 | 1019.1 |
| 20260906061014 | 13 | 331 | 4.8 | 12.9 | 0.00 | 0.05 | 0.03 | 89 | 1019.1 |
| 20260906060513 | 12 | 132 | 3.2 | 24.1 | 0.00 | 0.05 | 0.03 | 89 | 1019.1 |
| 20260906060012 | 12 | 269 | 4.8 | 24.1 | 0.00 | 0.05 | 0.03 | 89 | 1019.0 |
| 20260906055512 | 12 | 328 | 4.8 | 14.5 | 0.00 | 0.05 | 0.03 | 90 | 1019.1 |
| 20260906055013 | 12 | 162 | 3.2 | 12.9 | 0.00 | 0.05 | 0.03 | 90 | 1019.0 |
| 20260906054510 | 12 | 242 | 3.2 | 11.3 | 0.00 | 0.05 | 0.03 | 90 | 1018.9 |
| 20260906054008 | 12 | 217 | 4.8 | 16.1 | 0.00 | 0.05 | 0.03 | 90 | 1018.8 |
| 20260906053511 | 12 | 232 | 3.2 | 16.1 | 0.00 | 0.05 | 0.03 | 90 | 1018.7 |
| 20260906053006 | 12 | 205 | 4.8 | 19.3 | 0.00 | 0.05 | 0.03 | 91 | 1018.6 |
| 20260906052505 | 12 | 286 | 1.6 | 19.3 | 0.00 | 0.05 | 0.03 | 91 | 1018.5 |
| 20260906052005 | 12 | 212 | 4.8 | 12.9 | 0.00 | 0.05 | 0.03 | 91 | 1018.5 |
| 20260906051504 | 12 | 176 | 1.6 | 12.9 | 0.00 | 0.05 | 0.03 | 91 | 1018.6 |
| 20260906051104 | 12 | 192 | 1.6 | 12.9 | 0.00 | 0.05 | 0.03 | 91 | 1018.5 |
| 20260906050501 | 12 | 210 | 3.2 | 12.9 | 0.00 | 0.05 | 0.03 | 91 | 1018.4 |
| 20260906050003 | 12 | 166 | 1.6 | 14.5 | 0.00 | 0.05 | 0.03 | 91 | 1018.3 |
| 20260906045600 | 12 | 256 | 4.8 | 14.5 | 0.00 | 0.05 | 0.03 | 91 | 1018.3 |
| 20260906045059 | 12 | 288 | 3.2 | 19.3 | 0.00 | 0.05 | 0.03 | 91 | 1018.3 |
| 20260906044559 | 12 | 281 | 4.8 | 19.3 | 0.00 | 0.05 | 0.03 | 91 | 1018.2 |
| 20260906044102 | 12 | 199 | 1.6 | 14.5 | 0.00 | 0.05 | 0.03 | 91 | 1018.1 |
| 20260906043557 | 12 | 232 | 4.8 | 14.5 | 0.00 | 0.05 | 0.03 | 91 | 1018.2 |
| 20260906043102 | 12 | 242 | 4.8 | 12.9 | 0.00 | 0.05 | 0.03 | 91 | 1018.0 |
| 20260906042556 | 12 | 142 | 3.2 | 14.5 | 0.00 | 0.05 | 0.03 | 91 | 1018.1 |
| 20260906042055 | 12 | 299 | 3.2 | 14.5 | 0.00 | 0.05 | 0.03 | 91 | 1018.0 |
| 20260906041555 | 12 | 207 | 3.2 | 16.1 | 0.00 | 0.05 | 0.03 | 91 | 1017.9 |
| 20260906041054 | 12 | 301 | 4.8 | 16.1 | 0.00 | 0.05 | 0.03 | 91 | 1017.8 |
| 20260906040553 | 12 | 281 | 4.8 | 14.5 | 0.00 | 0.05 | 0.03 | 91 | 1017.9 |
| 20260906040053 | 12 | 288 | 3.2 | 14.5 | 0.00 | 0.05 | 0.03 | 90 | 1017.8 |
| 20260906035552 | 12 | 27 | 6.4 | 20.9 | 0.00 | 0.05 | 0.03 | 90 | 1017.8 |
| 20260906035052 | 12 | 286 | 3.2 | 20.9 | 0.00 | 0.05 | 0.03 | 90 | 1017.6 |
| 20260906034558 | 12 | 231 | 4.8 | 12.9 | 0.00 | 0.05 | 0.03 | 90 | 1017.5 |
| 20260906034050 | 12 | 173 | 3.2 | 12.9 | 0.00 | 0.05 | 0.03 | 90 | 1017.5 |
| 20260906033550 | 12 | 280 | 1.6 | 12.9 | 0.00 | 0.05 | 0.03 | 90 | 1017.4 |
| 20260906033048 | 12 | 272 | 3.2 | 17.7 | 0.00 | 0.05 | 0.03 | 90 | 1017.3 |
| 20260906032547 | 12 | 266 | 1.6 | 17.7 | 0.00 | 0.05 | 0.03 | 90 | 1017.3 |
| 20260906032047 | 12 | 194 | 3.2 | 11.3 | 0.00 | 0.05 | 0.03 | 90 | 1017.2 |
| 20260906031608 | 12 | 277 | 1.6 | 14.5 | 0.00 | 0.05 | 0.03 | 90 | 1017.1 |
| 20260906031046 | 12 | 281 | 3.2 | 16.1 | 0.00 | 0.05 | 0.03 | 90 | 1017.1 |
| 20260906030545 | 12 | 206 | 3.2 | 17.7 | 0.00 | 0.05 | 0.03 | 90 | 1017.0 |
| 20260906030044 | 12 | 330 | 3.2 | 9.7 | 0.00 | 0.05 | 0.03 | 89 | 1016.9 |
| 20260906025543 | 12 | 157 | 1.6 | 9.7 | 0.00 | 0.05 | 0.03 | 89 | 1016.9 |
| 20260906025043 | 12 | 182 | 3.2 | 9.7 | 0.00 | 0.05 | 0.03 | 89 | 1016.9 |
| 20260906024549 | 12 | 272 | 3.2 | 9.7 | 0.00 | 0.05 | 0.03 | 89 | 1016.9 |
| 20260906024041 | 12 | 146 | 1.6 | 12.9 | 0.00 | 0.05 | 0.03 | 89 | 1016.8 |
| 20260906023541 | 12 | 321 | 4.8 | 12.9 | 0.00 | 0.05 | 0.03 | 88 | 1016.8 |
| 20260906023054 | 12 | 192 | 3.2 | 12.9 | 0.00 | 0.05 | 0.03 | 88 | 1016.8 |
| 20260906022539 | 12 | 163 | 3.2 | 12.9 | 0.00 | 0.05 | 0.03 | 88 | 1016.8 |
| 20260906022041 | 12 | 261 | 4.8 | 14.5 | 0.00 | 0.05 | 0.03 | 88 | 1016.8 |
| 20260906021539 | 12 | 18 | 3.2 | 17.7 | 0.00 | 0.05 | 0.03 | 88 | 1016.7 |
| 20260906021040 | 12 | 276 | 1.6 | 14.5 | 0.00 | 0.05 | 0.03 | 88 | 1016.7 |
| 20260906020538 | 12 | 277 | 3.2 | 14.5 | 0.00 | 0.05 | 0.03 | 89 | 1016.6 |
| 20260906020048 | 12 | 280 | 1.6 | 12.9 | 0.00 | 0.05 | 0.03 | 88 | 1016.6 |
| 20260906015536 | 12 | 224 | 3.2 | 14.5 | 0.00 | 0.05 | 0.03 | 88 | 1016.5 |
| 20260906015036 | 12 | 275 | 3.2 | 14.5 | 0.00 | 0.05 | 0.03 | 88 | 1016.5 |
| 20260906014535 | 12 | 211 | 4.8 | 11.3 | 0.00 | 0.05 | 0.03 | 88 | 1016.5 |
| 20260906014035 | 12 | 209 | 3.2 | 14.5 | 0.00 | 0.05 | 0.03 | 88 | 1016.4 |
| 20260906013534 | 12 | 290 | 1.6 | 14.5 | 0.00 | 0.05 | 0.03 | 88 | 1016.4 |
| 20260906013034 | 12 | 215 | 4.8 | 14.5 | 0.00 | 0.05 | 0.03 | 88 | 1016.4 |
| 20260906012532 | 12 | 289 | 4.8 | 14.5 | 0.00 | 0.05 | 0.03 | 88 | 1016.3 |
| 20260906012032 | 12 | 142 | 3.2 | 12.9 | 0.00 | 0.05 | 0.03 | 88 | 1016.3 |
| 20260906011531 | 12 | 163 | 3.2 | 16.1 | 0.00 | 0.05 | 0.03 | 88 | 1016.3 |
| 20260906011032 | 12 | 221 | 3.2 | 17.7 | 0.00 | 0.05 | 0.03 | 88 | 1016.2 |
| 20260906010530 | 12 | 234 | 4.8 | 14.5 | 0.00 | 0.05 | 0.03 | 88 | 1016.1 |
| 20260906010031 | 12 | 163 | 3.2 | 19.3 | 0.00 | 0.05 | 0.03 | 88 | 1016.1 |
| 20260906005529 | 12 | 5 | 4.8 | 19.3 | 0.00 | 0.05 | 0.03 | 88 | 1016.0 |
| 20260906005029 | 12 | 89 | 3.2 | 12.9 | 0.00 | 0.05 | 0.03 | 88 | 1016.0 |
| 20260906004530 | 12 | 188 | 4.8 | 12.9 | 0.00 | 0.05 | 0.03 | 88 | 1016.0 |
| 20260906004027 | 12 | 138 | 1.6 | 12.9 | 0.00 | 0.05 | 0.03 | 88 | 1016.0 |
| 20260906003527 | 12 | 100 | 3.2 | 14.5 | 0.00 | 0.05 | 0.03 | 88 | 1015.8 |
| 20260906003026 | 12 | 161 | 3.2 | 14.5 | 0.00 | 0.05 | 0.03 | 88 | 1015.7 |
| 20260906002527 | 12 | 43 | 3.2 | 14.5 | 0.00 | 0.05 | 0.03 | 88 | 1015.7 |
| 20260906002025 | 12 | 279 | 4.8 | 14.5 | 0.00 | 0.05 | 0.03 | 88 | 1015.7 |
| 20260906001524 | 12 | 188 | 3.2 | 16.1 | 0.00 | 0.05 | 0.03 | 88 | 1015.6 |
| 20260906001025 | 12 | 136 | 1.6 | 14.5 | 0.00 | 0.05 | 0.03 | 87 | 1015.6 |
| 20260906000623 | 12 | 265 | 3.2 | 14.5 | 0.00 | 0.05 | 0.03 | 87 | 1015.4 |
| 20260906000021 | 12 | 284 | 3.2 | 14.5 | 0.00 | 0.05 | 0.03 | 87 | 1015.3 |
| 20260905235519 | 12 | 320 | 4.8 | 16.1 | 0.00 | 0.05 | 0.03 | 87 | 1015.2 |
| 20260905235024 | 12 | 61 | 4.8 | 16.1 | 0.00 | 0.05 | 0.03 | 87 | 1015.2 |
| 20260905234518 | 12 | 302 | 6.4 | 17.7 | 0.00 | 0.05 | 0.03 | 87 | 1015.2 |
| 20260905234017 | 12 | 327 | 4.8 | 14.5 | 0.03 | 0.05 | 0.03 | 87 | 1015.0 |
| 20260905233516 | 12 | 276 | 3.2 | 12.9 | 0.03 | 0.05 | 0.03 | 87 | 1015.0 |
| 20260905233017 | 12 | 296 | 4.8 | 14.5 | 0.03 | 0.05 | 0.03 | 87 | 1014.8 |
| 20260905232514 | 12 | 212 | 3.2 | 14.5 | 0.03 | 0.05 | 0.03 | 87 | 1014.8 |
| 20260905232013 | 13 | 240 | 3.2 | 14.5 | 0.03 | 0.05 | 0.03 | 86 | 1014.7 |
| 20260905231513 | 13 | 233 | 4.8 | 19.3 | 0.03 | 0.05 | 0.03 | 86 | 1014.6 |
| 20260905231012 | 13 | 277 | 8.0 | 19.3 | 0.03 | 0.05 | 0.03 | 86 | 1014.6 |
| 20260905230511 | 13 | 311 | 3.2 | 17.7 | 0.03 | 0.05 | 0.03 | 86 | 1014.6 |
| 20260905230010 | 13 | 209 | 1.6 | 14.5 | 0.03 | 0.05 | 0.03 | 86 | 1014.5 |
| 20260905225510 | 13 | 272 | 4.8 | 14.5 | 0.03 | 0.05 | 0.03 | 85 | 1014.5 |
| 20260905225007 | 13 | 262 | 3.2 | 14.5 | 0.03 | 0.05 | 0.03 | 85 | 1014.4 |
| 20260905224507 | 13 | 312 | 3.2 | 19.3 | 0.03 | 0.05 | 0.03 | 84 | 1014.3 |
| 20260905224008 | 13 | 258 | 4.8 | 19.3 | 0.00 | 0.03 | 0.00 | 84 | 1014.2 |
| 20260905223508 | 13 | 281 | 3.2 | 27.4 | 0.00 | 0.03 | 0.00 | 84 | 1014.1 |
| 20260905223003 | 13 | 279 | 6.4 | 27.4 | 0.00 | 0.03 | 0.00 | 84 | 1014.1 |
| 20260905222503 | 13 | 155 | 4.8 | 19.3 | 0.00 | 0.03 | 0.00 | 83 | 1014.1 |
| 20260905222002 | 13 | 120 | 3.2 | 19.3 | 0.00 | 0.03 | 0.00 | 83 | 1014.0 |
| 20260905221501 | 13 | 298 | 1.6 | 14.5 | 0.00 | 0.03 | 0.00 | 83 | 1013.9 |
| 20260905221101 | 13 | 231 | 6.4 | 16.1 | 0.00 | 0.03 | 0.00 | 83 | 1013.7 |
| 20260905220559 | 13 | 182 | 3.2 | 17.7 | 0.00 | 0.03 | 0.00 | 83 | 1013.7 |
| 20260905220059 | 13 | 13 | 3.2 | 17.7 | 0.00 | 0.03 | 0.00 | 82 | 1013.7 |
| 20260905215557 | 13 | 267 | 8.0 | 22.5 | 0.00 | 0.03 | 0.03 | 82 | 1013.6 |
| 20260905215058 | 13 | 257 | 6.4 | 22.5 | 0.00 | 0.03 | 0.03 | 82 | 1013.5 |
| 20260905214604 | 13 | 180 | 6.4 | 19.3 | 0.00 | 0.03 | 0.03 | 82 | 1013.4 |
| 20260905214057 | 14 | 296 | 6.4 | 20.9 | 0.00 | 0.03 | 0.03 | 81 | 1013.4 |
| 20260905213556 | 14 | 197 | 6.4 | 20.9 | 0.00 | 0.03 | 0.03 | 81 | 1013.3 |
| 20260905213055 | 14 | 290 | 3.2 | 14.5 | 0.00 | 0.03 | 0.03 | 81 | 1013.3 |
| 20260905212557 | 14 | 179 | 6.4 | 19.3 | 0.00 | 0.03 | 0.03 | 81 | 1013.1 |
| 20260905212053 | 14 | 238 | 3.2 | 19.3 | 0.00 | 0.03 | 0.03 | 81 | 1013.2 |
| 20260905211554 | 14 | 260 | 6.4 | 17.7 | 0.00 | 0.03 | 0.03 | 81 | 1012.9 |
| 20260905211054 | 14 | 275 | 6.4 | 22.5 | 0.00 | 0.03 | 0.03 | 81 | 1013.0 |
| 20260905210552 | 14 | 277 | 3.2 | 22.5 | 0.00 | 0.03 | 0.03 | 81 | 1012.8 |
| 20260905210104 | 14 | 267 | 6.4 | 19.3 | 0.00 | 0.03 | 0.03 | 81 | 1012.8 |
| 20260905205552 | 14 | 211 | 6.4 | 17.7 | 0.00 | 0.03 | 0.03 | 81 | 1012.8 |
| 20260905205052 | 14 | 185 | 4.8 | 20.9 | 0.00 | 0.03 | 0.03 | 81 | 1012.8 |
| 20260905204551 | 14 | 186 | 6.4 | 25.7 | 0.00 | 0.03 | 0.03 | 81 | 1012.7 |
| 20260905204051 | 14 | 276 | 6.4 | 17.7 | 0.00 | 0.03 | 0.03 | 81 | 1012.7 |
| 20260905203551 | 14 | 183 | 4.8 | 20.9 | 0.00 | 0.03 | 0.03 | 81 | 1012.6 |
| 20260905203050 | 14 | 43 | 8.0 | 22.5 | 0.00 | 0.03 | 0.03 | 81 | 1012.4 |
| 20260905202549 | 14 | 202 | 6.4 | 20.9 | 0.00 | 0.03 | 0.03 | 81 | 1012.4 |
| 20260905202048 | 13 | 306 | 6.4 | 17.7 | 0.00 | 0.03 | 0.03 | 82 | 1012.3 |
| 20260905201548 | 13 | 190 | 6.4 | 17.7 | 0.00 | 0.03 | 0.03 | 82 | 1012.3 |
| 20260905201047 | 13 | 308 | 8.0 | 19.3 | 0.00 | 0.03 | 0.03 | 82 | 1012.3 |
| 20260905200546 | 13 | 242 | 6.4 | 17.7 | 0.00 | 0.03 | 0.03 | 83 | 1012.1 |
| 20260905200053 | 13 | 275 | 3.2 | 14.5 | 0.00 | 0.03 | 0.03 | 83 | 1012.0 |
| 20260905195550 | 13 | 294 | 4.8 | 16.1 | 0.00 | 0.03 | 0.03 | 83 | 1012.1 |
| 20260905195045 | 13 | 271 | 3.2 | 16.1 | 0.00 | 0.03 | 0.03 | 82 | 1012.1 |
| 20260905194547 | 13 | 202 | 4.8 | 20.9 | 0.00 | 0.03 | 0.03 | 82 | 1011.8 |
| 20260905194044 | 13 | 292 | 4.8 | 20.9 | 0.00 | 0.03 | 0.03 | 82 | 1011.9 |
| 20260905193543 | 13 | 238 | 6.4 | 20.9 | 0.00 | 0.03 | 0.03 | 82 | 1011.8 |
| 20260905193044 | 13 | 168 | 3.2 | 17.7 | 0.00 | 0.03 | 0.03 | 82 | 1011.8 |
| 20260905192542 | 13 | 311 | 4.8 | 24.1 | 0.00 | 0.03 | 0.03 | 82 | 1011.7 |
| 20260905192040 | 13 | 209 | 8.0 | 24.1 | 0.00 | 0.03 | 0.03 | 82 | 1011.6 |
| 20260905191542 | 13 | 198 | 4.8 | 16.1 | 0.00 | 0.03 | 0.03 | 82 | 1011.4 |
| 20260905191040 | 13 | 29 | 6.4 | 20.9 | 0.00 | 0.03 | 0.03 | 82 | 1011.3 |
| 20260905190540 | 14 | 170 | 6.4 | 22.5 | 0.00 | 0.03 | 0.03 | 82 | 1011.3 |
| 20260905190046 | 13 | 306 | 6.4 | 22.5 | 0.00 | 0.03 | 0.03 | 82 | 1011.2 |
| 20260905185543 | 13 | 360 | 6.4 | 22.5 | 0.00 | 0.05 | 0.03 | 82 | 1011.3 |
| 20260905185039 | 14 | 254 | 6.4 | 24.1 | 0.00 | 0.05 | 0.03 | 82 | 1011.2 |
| 20260905184540 | 14 | 55 | 6.4 | 17.7 | 0.00 | 0.05 | 0.03 | 81 | 1011.1 |
| 20260905184041 | 14 | 185 | 8.0 | 17.7 | 0.00 | 0.05 | 0.03 | 81 | 1011.1 |
| 20260905183538 | 14 | 324 | 6.4 | 24.1 | 0.00 | 0.05 | 0.03 | 80 | 1011.0 |